createdAt,value
2022-08-20T08:58:16.603Z,99.99
2022-08-20T08:59:13.146Z,99.99
2022-08-20T09:00:13.099Z,99.99
2022-08-20T09:01:52.916Z,99.99
2022-08-20T09:02:13.083Z,99.99
2022-08-20T09:03:12.973Z,99.99
2022-08-20T09:04:12.938Z,99.99
2022-08-20T09:05:12.888Z,99.99
2022-08-20T09:06:12.854Z,99.99
2022-08-20T09:07:12.801Z,99.99
2022-08-20T09:08:16.816Z,99.99
2022-08-20T09:09:12.718Z,99.99
2022-08-20T09:10:12.676Z,99.99
2022-08-20T09:11:12.633Z,99.99
2022-08-20T09:12:12.593Z,99.99
2022-08-20T09:13:12.548Z,99.99
2022-08-20T09:14:12.507Z,99.99
2022-08-20T12:04:01.641Z,74.12
2022-08-20T12:05:01.599Z,74.96
2022-08-20T12:07:39.168Z,73.50
2022-08-20T12:08:39.126Z,73.63
2022-08-20T12:09:42.923Z,73.54
2022-08-20T12:10:39.045Z,73.15
2022-08-20T12:11:39.009Z,71.30
2022-08-20T12:12:38.971Z,71.14
2022-08-20T12:13:47.826Z,71.33
2022-08-20T12:14:38.886Z,72.89
2022-08-20T12:15:38.968Z,72.34
2022-08-20T12:16:38.843Z,72.73
2022-08-20T12:17:38.768Z,72.25
2022-08-20T12:18:38.725Z,71.31
2022-08-20T12:19:38.689Z,70.72
2022-08-20T12:20:38.655Z,68.38
2022-08-20T12:21:38.612Z,67.41
2022-08-20T12:22:38.566Z,67.12
2022-08-20T12:23:38.530Z,67.41
2022-08-20T12:24:38.489Z,67.41
2022-08-20T12:25:38.452Z,66.69
2022-08-20T12:26:38.410Z,67.08
2022-08-20T12:27:38.371Z,67.86
2022-08-20T12:28:38.331Z,68.61
2022-08-20T12:29:38.293Z,69.10
2022-08-20T12:30:38.254Z,70.17
2022-08-20T12:31:38.215Z,70.56
2022-08-20T12:32:38.178Z,70.07
2022-08-20T12:33:38.135Z,70.65
2022-08-20T12:34:38.092Z,70.65
2022-08-20T12:35:38.061Z,71.43
2022-08-20T12:36:38.020Z,70.72
2022-08-20T12:39:11.427Z,70.52
2022-08-20T12:40:11.431Z,70.42
2022-08-20T12:41:11.344Z,70.32
2022-08-20T12:42:11.302Z,69.26
2022-08-20T12:43:11.274Z,69.16
2022-08-20T12:44:13.378Z,69.03
2022-08-20T12:45:11.189Z,68.54
2022-08-20T12:46:11.140Z,67.54
2022-08-20T12:47:11.105Z,67.44
2022-08-20T12:48:11.063Z,67.34
2022-08-20T12:49:11.025Z,66.92
2022-08-20T12:50:10.982Z,66.92
2022-08-20T12:51:10.946Z,67.60
2022-08-20T12:52:10.900Z,67.37
2022-08-20T12:53:10.867Z,67.47
2022-08-20T12:54:10.821Z,67.57
2022-08-20T12:55:10.793Z,68.70
2022-08-20T12:56:10.745Z,68.51
2022-08-20T12:57:10.702Z,68.89
2022-08-20T12:58:10.658Z,69.96
2022-08-20T12:59:10.621Z,70.41
2022-08-20T13:00:10.579Z,70.80
2022-08-20T13:01:10.598Z,71.38
2022-08-20T13:02:14.100Z,71.09
2022-08-20T13:03:45.086Z,71.28
2022-08-20T13:04:10.420Z,71.06
2022-08-20T13:05:10.378Z,71.83
2022-08-20T13:06:10.341Z,71.44
2022-08-20T13:07:11.578Z,69.79
2022-08-20T13:08:10.259Z,69.02
2022-08-20T13:09:10.216Z,69.06
2022-08-20T13:10:10.173Z,69.24
2022-08-20T13:11:10.133Z,68.18
2022-08-20T13:12:10.092Z,67.50
2022-08-20T13:13:10.049Z,67.44
2022-08-20T13:14:10.013Z,66.44
2022-08-20T13:15:09.969Z,65.30
2022-08-20T13:16:09.933Z,64.91
2022-08-20T13:17:53.150Z,64.88
2022-08-20T13:18:53.101Z,64.49
2022-08-20T13:31:50.254Z,66.11
2022-08-20T13:32:50.237Z,64.91
2022-08-20T13:33:50.188Z,66.27
2022-08-20T13:34:50.135Z,66.56
2022-08-20T13:35:50.095Z,66.47
2022-08-20T13:36:50.052Z,66.76
2022-08-20T13:58:15.017Z,69.02
2022-08-20T13:59:14.994Z,69.12
2022-08-20T14:08:59.928Z,70.64
2022-08-20T14:09:59.888Z,70.64
2022-08-20T14:10:59.846Z,70.25
2022-08-20T14:11:59.804Z,70.93
2022-08-20T14:12:59.765Z,70.83
2022-08-20T14:13:59.723Z,70.83
2022-08-20T14:20:52.743Z,70.87
2022-08-20T14:22:52.693Z,68.57
2022-08-20T14:23:52.622Z,67.21
2022-08-20T14:24:52.577Z,67.11
2022-08-20T14:25:52.538Z,66.82
2022-08-20T14:26:52.497Z,65.27
2022-08-20T14:27:52.461Z,63.91
2022-08-20T14:28:52.423Z,64.40
2022-08-20T14:29:52.375Z,64.20
2022-08-20T14:30:53.037Z,63.81
2022-08-20T14:31:52.295Z,64.40
2022-08-20T14:32:52.255Z,64.59
2022-08-20T14:33:52.218Z,65.37
2022-08-20T14:34:52.171Z,64.78
2022-08-20T14:35:52.134Z,64.78
2022-08-20T14:36:52.092Z,64.98
2022-08-20T14:37:52.057Z,65.08
2022-08-20T14:38:52.011Z,64.78
2022-08-20T14:39:52.040Z,64.11
2022-08-20T14:40:51.929Z,64.20
2022-08-20T14:41:51.890Z,64.20
2022-08-20T14:42:52.010Z,64.20
2022-08-20T14:43:51.812Z,64.72
2022-08-20T14:44:51.767Z,64.91
2022-08-20T14:45:51.729Z,63.75
2022-08-20T14:46:51.689Z,63.94
2022-08-20T14:47:53.824Z,64.04
2022-08-20T14:48:51.838Z,63.84
2022-08-20T14:49:51.569Z,64.04
2022-08-20T14:50:51.533Z,64.23
2022-08-20T14:51:51.489Z,64.23
2022-08-20T14:52:51.449Z,65.20
2022-08-20T14:53:51.408Z,65.30
2022-08-20T14:54:51.367Z,64.43
2022-08-20T14:55:51.328Z,64.14
2022-08-20T14:56:51.287Z,64.04
2022-08-20T14:57:51.314Z,63.94
2022-08-20T14:58:51.207Z,63.45
2022-08-20T14:59:51.168Z,62.97
2022-08-20T15:00:51.178Z,63.45
2022-08-20T15:01:51.086Z,63.65
2022-08-20T15:02:51.045Z,63.17
2022-08-20T15:03:51.130Z,63.71
2022-08-20T15:04:53.892Z,63.23
2022-08-20T15:05:50.924Z,63.71
2022-08-20T15:06:50.883Z,63.81
2022-08-20T15:07:51.592Z,64.30
2022-08-20T15:08:50.805Z,63.81
2022-08-20T15:09:50.768Z,63.32
2022-08-20T15:10:50.721Z,63.42
2022-08-20T15:11:50.685Z,63.32
2022-08-20T15:12:50.696Z,62.97
2022-08-20T15:13:50.603Z,62.29
2022-08-20T15:14:50.561Z,60.44
2022-08-20T15:15:50.523Z,61.02
2022-08-20T15:16:50.483Z,61.12
2022-08-20T15:17:50.471Z,60.83
2022-08-20T15:18:50.423Z,60.74
2022-08-20T15:19:50.362Z,60.83
2022-08-20T15:20:50.321Z,60.15
2022-08-20T15:21:50.348Z,60.15
2022-08-20T15:22:50.412Z,60.35
2022-08-20T15:23:50.202Z,60.93
2022-08-20T15:24:50.161Z,61.02
2022-08-20T15:25:50.121Z,61.22
2022-08-20T15:26:50.079Z,60.93
2022-08-20T15:27:50.048Z,60.74
2022-08-20T15:28:50.004Z,60.15
2022-08-20T15:29:49.966Z,61.12
2022-08-20T15:30:49.919Z,61.41
2022-08-20T15:31:49.883Z,61.12
2022-08-20T15:32:54.614Z,60.54
2022-08-20T15:33:49.806Z,60.93
2022-08-20T15:34:49.766Z,61.41
2022-08-20T15:35:49.723Z,61.61
2022-08-20T15:36:49.689Z,62.00
2022-08-20T15:37:49.668Z,61.41
2022-08-20T15:38:49.603Z,62.97
2022-08-20T15:39:49.603Z,61.32
2022-08-20T15:40:49.521Z,61.15
2022-08-20T15:41:49.480Z,60.18
2022-08-20T15:42:49.461Z,60.38
2022-08-20T15:43:49.401Z,60.28
2022-08-20T15:44:49.359Z,59.59
2022-08-20T15:45:49.321Z,59.21
2022-08-20T15:46:49.278Z,58.92
2022-08-20T15:47:49.240Z,59.31
2022-08-20T15:48:49.198Z,58.11
2022-08-20T15:49:49.170Z,58.01
2022-08-20T15:50:49.120Z,58.40
2022-08-20T15:51:49.078Z,59.11
2022-08-20T15:52:49.038Z,58.46
2022-08-20T15:53:48.998Z,57.97
2022-08-20T15:54:48.957Z,57.74
2022-08-20T15:55:48.922Z,57.37
2022-08-20T16:43:59.578Z,44.96
2022-08-20T16:44:59.542Z,42.45
2022-08-20T17:13:54.831Z,48.88
2022-08-20T17:14:54.791Z,50.12
2022-08-20T17:15:54.758Z,49.24
2022-08-20T17:26:54.000Z,54.38
2022-08-20T17:27:52.840Z,56.20
2022-08-20T17:40:43.933Z,56.24
2022-08-20T17:41:43.894Z,55.36
2022-08-20T17:42:43.855Z,55.07
2022-08-20T17:43:43.814Z,55.43
2022-08-20T17:44:43.779Z,55.43
2022-08-20T18:31:49.575Z,60.82
2022-08-20T18:32:49.538Z,60.52
2022-08-20T18:33:49.500Z,60.72
2022-08-20T18:34:49.450Z,61.36
2022-08-20T18:35:49.416Z,61.18
2022-08-20T18:36:49.368Z,60.98
2022-08-20T18:37:49.330Z,61.36
2022-08-20T18:38:49.287Z,61.27
2022-08-20T18:39:49.292Z,61.66
2022-08-20T18:40:53.126Z,61.66
2022-08-20T18:41:49.163Z,61.46
2022-08-20T18:42:49.121Z,62.21
2022-08-20T18:43:49.083Z,61.82
2022-08-20T18:44:49.037Z,61.82
2022-08-20T18:45:49.006Z,62.01
2022-08-20T18:46:48.961Z,62.01
2022-08-20T18:47:48.916Z,62.50
2022-08-20T18:48:48.874Z,62.30
